Time;durP1;ratioP1;P1;durP2;ratioP2;P2;SDS_P1;SDS_P2;PMS_P1;PMS_P2;Temp;Humidity;BMP_temperature;BMP_pressure;BME280_temperature;BME280_humidity;BME280_pressure;Samples;Min_cycle;Max_cycle;Signal;HPM_P1;HPM_P2
2022/10/15 00:01:07;;;;;;;;;;;;;;;15.71;85.46;100281.75;5067128;28;19931;-70
2022/10/15 00:03:35;;;;;;;;;;;;;;;15.93;84.57;100281.72;5068325;28;19924;-70
2022/10/15 00:06:03;;;;;;;;;;;;;;;16.07;83.82;100273.53;5056703;28;19924;-70
2022/10/15 00:08:29;;;;;;;;;;;;;;;16.29;83.36;100277.88;5067304;28;19977;-70
2022/10/15 00:10:56;;;;;;;;;;;;;;;16.09;84.20;100274.22;5066894;28;19928;-70
2022/10/15 00:13:22;;;;;;;;;;;;;;;16.38;82.77;100275.31;5053604;28;19925;-70
2022/10/15 00:15:48;;;;;;;;;;;;;;;16.25;82.89;100274.66;5067625;28;19998;-70
2022/10/15 00:18:16;;;;;;;;;;;;;;;16.32;82.55;100261.75;5074194;28;19947;-70
2022/10/15 00:20:42;;;;;;;;;;;;;;;16.24;82.75;100270.31;5070388;28;19928;-70
2022/10/15 00:23:08;;;;;;;;;;;;;;;15.68;86.26;100260.88;5068353;28;19935;-70
2022/10/15 00:25:35;;;;;;;;;;;;;;;15.77;85.35;100257.50;5071668;28;20313;-70
2022/10/15 00:28:01;;;;;;;;;;;;;;;15.94;84.49;100260.44;5060989;28;20019;-69
2022/10/15 00:30:27;;;;;;;;;;;;;;;15.68;85.96;100255.56;5069615;28;19924;-69
2022/10/15 00:32:54;;;;;;;;;;;;;;;15.38;87.53;100257.03;5072289;28;19924;-70
2022/10/15 00:35:21;;;;;;;;;;;;;;;15.51;87.16;100254.28;5058470;28;19924;-70
2022/10/15 00:37:48;;;;;;;;;;;;;;;15.53;87.06;100273.50;5080526;28;19935;-70
2022/10/15 00:40:14;;;;;;;;;;;;;;;15.73;85.89;100274.56;5070410;28;19928;-70
2022/10/15 00:42:41;;;;;;;;;;;;;;;15.81;85.74;100277.44;5056794;28;19931;-70
2022/10/15 00:45:11;;;;;;;;;;;;;;;15.97;84.66;100273.41;5075259;28;20431;-70
2022/10/15 00:47:38;;;;;;;;;;;;;;;16.41;82.75;100274.19;5070581;28;19931;-70
2022/10/15 00:50:07;;;;;;;;;;;;;;;16.25;82.49;100266.72;5058645;28;19924;-70
2022/10/15 00:52:38;;;;;;;;;;;;;;;15.98;84.48;100259.22;5069892;28;19928;-70
2022/10/15 00:55:06;;;;;;;;;;;;;;;15.75;85.38;100256.75;5070752;28;19924;-70
2022/10/15 00:57:33;;;;;;;;;;;;;;;15.85;84.95;100252.44;5060906;28;20027;-70
2022/10/15 01:00:01;;;;;;;;;;;;;;;15.86;84.50;100251.44;5070007;28;19974;-70
2022/10/15 01:02:28;;;;;;;;;;;;;;;16.19;83.37;100247.84;5071173;28;19977;-70
2022/10/15 01:04:55;;;;;;;;;;;;;;;15.69;85.14;100260.75;5060623;28;20353;-70
2022/10/15 01:07:21;;;;;;;;;;;;;;;15.89;84.90;100251.22;5069437;28;20402;-70
2022/10/15 01:09:48;;;;;;;;;;;;;;;16.15;83.40;100246.44;5070811;28;19932;-70
2022/10/15 01:12:19;;;;;;;;;;;;;;;15.92;84.24;100245.69;5060696;28;19928;-70
2022/10/15 01:14:50;;;;;;;;;;;;;;;16.48;81.38;100247.09;5070829;28;20307;-70
2022/10/15 01:17:20;;;;;;;;;;;;;;;16.19;82.27;100239.91;5064467;28;19935;-70
2022/10/15 01:20:13;;;;;;;;;;;;;;;15.51;86.48;100239.28;5069976;28;20391;-70
2022/10/15 01:22:47;;;;;;;;;;;;;;;15.52;86.73;100240.94;5054944;28;19939;-70
2022/10/15 01:25:22;;;;;;;;;;;;;;;15.32;87.82;100249.59;5069182;28;19932;-70
2022/10/15 01:27:52;;;;;;;;;;;;;;;15.65;86.39;100239.97;5060418;28;20438;-70
2022/10/15 01:30:21;;;;;;;;;;;;;;;15.70;85.60;100232.53;5068691;28;20323;-70
2022/10/15 01:32:51;;;;;;;;;;;;;;;16.03;84.10;100230.63;5069974;28;19928;-70
2022/10/15 01:35:22;;;;;;;;;;;;;;;15.96;84.71;100229.41;5059938;28;19924;-70
2022/10/15 01:37:52;;;;;;;;;;;;;;;15.39;87.13;100234.09;5069912;28;19929;-71
2022/10/15 01:40:20;;;;;;;;;;;;;;;15.46;86.79;100225.56;5064011;28;19981;-70
2022/10/15 01:42:51;;;;;;;;;;;;;;;15.70;86.11;100216.66;5069691;28;20398;-70
2022/10/15 01:45:19;;;;;;;;;;;;;;;15.53;87.21;100229.41;5074592;28;19924;-70
2022/10/15 01:47:49;;;;;;;;;;;;;;;15.22;88.54;100229.31;5059504;28;20394;-70
2022/10/15 01:50:17;;;;;;;;;;;;;;;15.06;89.79;100225.25;5066205;28;19924;-70
2022/10/15 01:52:44;;;;;;;;;;;;;;;15.44;87.73;100227.50;5065343;28;19939;-70
2022/10/15 01:55:13;;;;;;;;;;;;;;;15.38;88.19;100232.41;5058499;28;20383;-70
2022/10/15 01:57:40;;;;;;;;;;;;;;;15.65;86.68;100229.41;5067941;28;20454;-70
2022/10/15 02:00:07;;;;;;;;;;;;;;;15.73;85.71;100221.69;5068771;28;20368;-70
2022/10/15 02:02:34;;;;;;;;;;;;;;;15.91;84.96;100220.19;5058739;28;19964;-70
2022/10/15 02:05:01;;;;;;;;;;;;;;;15.79;85.33;100215.91;5067710;28;20564;-70
2022/10/15 02:07:33;;;;;;;;;;;;;;;15.86;84.91;100217.91;5068907;28;19931;-70
2022/10/15 02:10:06;;;;;;;;;;;;;;;15.56;86.04;100213.31;5058758;28;19997;-70
2022/10/15 02:12:41;;;;;;;;;;;;;;;15.79;84.96;100206.16;5064468;28;20019;-70
2022/10/15 02:15:11;;;;;;;;;;;;;;;15.76;85.24;100211.72;5062924;28;19924;-70
2022/10/15 02:17:40;;;;;;;;;;;;;;;15.37;87.24;100206.97;5068886;28;19928;-70
2022/10/15 02:20:12;;;;;;;;;;;;;;;15.29;88.18;100218.16;5066052;28;20415;-70
2022/10/15 02:22:41;;;;;;;;;;;;;;;14.96;89.22;100207.59;5059628;28;20416;-70
2022/10/15 02:25:10;;;;;;;;;;;;;;;14.94;89.65;100217.41;5067699;28;20449;-70
2022/10/15 02:27:37;;;;;;;;;;;;;;;15.00;89.51;100209.03;5058821;28;19924;-70
2022/10/15 02:30:07;;;;;;;;;;;;;;;15.13;88.86;100207.09;5068858;28;19930;-70
2022/10/15 02:32:35;;;;;;;;;;;;;;;14.97;89.45;100210.09;5069085;28;20001;-70
2022/10/15 02:35:02;;;;;;;;;;;;;;;15.01;89.71;100200.13;5061256;28;19924;-70
2022/10/15 02:37:31;;;;;;;;;;;;;;;15.31;88.38;100197.72;5077210;28;19955;-70
2022/10/15 02:39:57;;;;;;;;;;;;;;;15.33;87.37;100198.47;5065593;28;19928;-70
2022/10/15 02:42:24;;;;;;;;;;;;;;;14.84;90.60;100205.91;5062239;28;19931;-70
2022/10/15 02:44:50;;;;;;;;;;;;;;;14.55;92.78;100213.44;5069745;28;19986;-70
2022/10/15 02:47:16;;;;;;;;;;;;;;;14.74;92.23;100211.06;5072695;28;20015;-70
2022/10/15 02:49:43;;;;;;;;;;;;;;;14.99;90.68;100199.44;5065897;28;19928;-70
2022/10/15 02:52:09;;;;;;;;;;;;;;;15.24;88.75;100204.47;5065840;28;20395;-70
2022/10/15 02:54:36;;;;;;;;;;;;;;;15.42;88.03;100196.84;5067163;28;19931;-70
2022/10/15 02:57:03;;;;;;;;;;;;;;;15.51;86.79;100194.38;5055330;28;19931;-70
2022/10/15 02:59:29;;;;;;;;;;;;;;;15.35;87.48;100188.59;5066367;28;19924;-70
2022/10/15 03:01:55;;;;;;;;;;;;;;;15.55;86.93;100194.97;5073534;28;19931;-70
2022/10/15 03:04:22;;;;;;;;;;;;;;;15.39;87.14;100178.63;5078164;28;19928;-70
2022/10/15 03:06:48;;;;;;;;;;;;;;;15.32;87.77;100186.19;5085178;28;19973;-70
2022/10/15 03:09:14;;;;;;;;;;;;;;;15.32;87.71;100183.56;5066872;28;19931;-70
2022/10/15 03:11:42;;;;;;;;;;;;;;;14.88;90.29;100187.06;5058222;28;19935;-70
2022/10/15 03:14:08;;;;;;;;;;;;;;;14.57;92.74;100193.88;5067673;28;19931;-70
2022/10/15 03:16:35;;;;;;;;;;;;;;;14.91;91.47;100194.75;5073085;28;19925;-70
2022/10/15 03:19:01;;;;;;;;;;;;;;;14.79;91.42;100202.78;5067134;28;19928;-70
2022/10/15 03:21:29;;;;;;;;;;;;;;;14.84;91.54;100185.63;5074605;28;19925;-70
2022/10/15 03:23:56;;;;;;;;;;;;;;;14.92;91.64;100187.69;5067396;28;20284;-70
2022/10/15 03:26:22;;;;;;;;;;;;;;;15.15;90.24;100189.31;5063559;28;19932;-70
2022/10/15 03:28:50;;;;;;;;;;;;;;;15.26;89.50;100185.84;5066957;28;19937;-70
2022/10/15 03:31:16;;;;;;;;;;;;;;;15.00;90.33;100185.28;5066401;28;20368;-70
2022/10/15 03:33:42;;;;;;;;;;;;;;;15.13;89.88;100180.69;5082303;28;19936;-70
2022/10/15 03:36:09;;;;;;;;;;;;;;;15.05;90.32;100169.91;5072746;28;19944;-70
2022/10/15 03:38:35;;;;;;;;;;;;;;;14.91;90.66;100164.88;5065970;28;19924;-70
2022/10/15 03:41:01;;;;;;;;;;;;;;;14.88;91.53;100171.25;5084498;28;19955;-70
2022/10/15 03:43:28;;;;;;;;;;;;;;;15.18;90.00;100164.50;5067682;28;19931;-70
2022/10/15 03:45:55;;;;;;;;;;;;;;;15.48;87.84;100173.41;5069039;28;20398;-70
2022/10/15 03:48:22;;;;;;;;;;;;;;;15.19;89.34;100174.09;5070902;28;19925;-70
2022/10/15 03:50:48;;;;;;;;;;;;;;;15.33;88.38;100177.31;5071659;28;19924;-70
2022/10/15 03:53:14;;;;;;;;;;;;;;;15.26;88.83;100175.28;5070205;28;19924;-70
2022/10/15 03:55:41;;;;;;;;;;;;;;;15.36;88.77;100177.06;5071271;28;20373;-71
2022/10/15 03:58:07;;;;;;;;;;;;;;;15.29;89.02;100180.31;5062947;28;19924;-71
2022/10/15 04:00:33;;;;;;;;;;;;;;;14.89;91.02;100194.00;5070462;28;20369;-70
2022/10/15 04:03:01;;;;;;;;;;;;;;;14.91;91.75;100189.47;5071315;28;19928;-71
2022/10/15 04:05:27;;;;;;;;;;;;;;;15.47;88.79;100181.50;5053724;28;20295;-70
2022/10/15 04:07:54;;;;;;;;;;;;;;;15.49;87.90;100184.88;5080107;28;20390;-71
2022/10/15 04:10:20;;;;;;;;;;;;;;;15.36;89.38;100181.50;5091788;28;19977;-71
2022/10/15 04:12:46;;;;;;;;;;;;;;;15.29;89.32;100182.97;5066588;28;19930;-70
2022/10/15 04:15:13;;;;;;;;;;;;;;;15.39;88.78;100179.47;5075461;28;20339;-71
2022/10/15 04:17:39;;;;;;;;;;;;;;;15.62;86.87;100190.84;5075275;28;19935;-71
2022/10/15 04:20:07;;;;;;;;;;;;;;;16.04;84.68;100186.47;5060015;28;20371;-70
2022/10/15 04:22:34;;;;;;;;;;;;;;;16.07;84.29;100188.88;5069151;28;19970;-70
2022/10/15 04:25:00;;;;;;;;;;;;;;;16.12;83.71;100184.03;5070885;28;19931;-71
2022/10/15 04:27:26;;;;;;;;;;;;;;;16.24;82.57;100193.59;5059062;28;20402;-71
2022/10/15 04:29:53;;;;;;;;;;;;;;;16.28;82.55;100189.72;5068789;28;19928;-71
2022/10/15 04:32:19;;;;;;;;;;;;;;;16.26;81.95;100194.28;5076194;28;19927;-71
2022/10/15 04:34:46;;;;;;;;;;;;;;;16.33;81.83;100198.09;5067158;28;20256;-71
2022/10/15 04:37:14;;;;;;;;;;;;;;;16.36;81.02;100186.44;5086906;28;19924;-71
2022/10/15 04:39:40;;;;;;;;;;;;;;;16.18;81.85;100191.47;5069201;28;19930;-71
2022/10/15 04:42:06;;;;;;;;;;;;;;;15.91;83.37;100183.19;5049798;28;19931;-70
2022/10/15 04:44:33;;;;;;;;;;;;;;;15.95;83.44;100190.75;5069960;28;19924;-70
2022/10/15 04:47:00;;;;;;;;;;;;;;;15.59;84.93;100191.09;5076313;28;20337;-70
2022/10/15 04:49:26;;;;;;;;;;;;;;;16.10;83.21;100188.63;5059916;28;19924;-71
2022/10/15 04:51:53;;;;;;;;;;;;;;;16.24;82.16;100190.97;5078138;28;20283;-71
2022/10/15 04:54:20;;;;;;;;;;;;;;;16.30;81.46;100195.72;5066333;28;19963;-71
2022/10/15 04:56:47;;;;;;;;;;;;;;;16.03;82.17;100188.31;5064373;28;19924;-71
2022/10/15 04:59:13;;;;;;;;;;;;;;;15.63;84.57;100196.97;5055194;28;19924;-72
2022/10/15 05:01:39;;;;;;;;;;;;;;;15.70;84.74;100208.75;5069708;28;20407;-71
2022/10/15 05:04:06;;;;;;;;;;;;;;;15.97;84.20;100204.66;5059088;28;19924;-71
2022/10/15 05:06:32;;;;;;;;;;;;;;;15.56;85.87;100196.63;5070103;28;19935;-71
2022/10/15 05:09:00;;;;;;;;;;;;;;;15.45;87.29;100200.09;5068586;28;19924;-71
2022/10/15 05:11:28;;;;;;;;;;;;;;;15.37;87.23;100205.16;5059658;28;19924;-71
2022/10/15 05:13:55;;;;;;;;;;;;;;;15.33;88.31;100197.63;5069982;28;19928;-70
2022/10/15 05:16:22;;;;;;;;;;;;;;;15.16;88.74;100206.00;5079295;28;19924;-70
2022/10/15 05:18:50;;;;;;;;;;;;;;;15.27;89.47;100204.22;5051314;28;20350;-70
2022/10/15 05:21:17;;;;;;;;;;;;;;;15.68;86.90;100203.56;5070516;28;19931;-70
2022/10/15 05:23:44;;;;;;;;;;;;;;;15.79;85.86;100206.16;5072210;28;19947;-70
2022/10/15 05:26:12;;;;;;;;;;;;;;;15.07;89.42;100205.81;5060195;28;19939;-70
2022/10/15 05:28:39;;;;;;;;;;;;;;;15.33;88.42;100213.47;5072882;28;19932;-71
2022/10/15 05:31:06;;;;;;;;;;;;;;;15.48;88.40;100212.25;5068793;28;19924;-71
2022/10/15 05:33:32;;;;;;;;;;;;;;;15.44;87.64;100208.16;5060185;28;20150;-71
2022/10/15 05:36:07;;;;;;;;;;;;;;;15.04;90.41;100218.38;5069333;28;19928;-71
2022/10/15 05:38:33;;;;;;;;;;;;;;;14.90;90.99;100227.38;5077810;28;19924;-71
2022/10/15 05:41:00;;;;;;;;;;;;;;;15.07;90.71;100221.66;5074898;28;20296;-72
2022/10/15 05:43:26;;;;;;;;;;;;;;;15.33;89.42;100224.88;5069929;28;19932;-71
2022/10/15 05:45:54;;;;;;;;;;;;;;;15.48;87.84;100228.91;5076459;28;19931;-71
2022/10/15 05:48:21;;;;;;;;;;;;;;;14.95;90.98;100233.16;5058613;28;19924;-71
2022/10/15 05:50:47;;;;;;;;;;;;;;;15.20;90.39;100233.88;5065958;28;19931;-71
2022/10/15 05:53:14;;;;;;;;;;;;;;;14.91;91.34;100236.16;5077009;28;19967;-69
2022/10/15 05:55:40;;;;;;;;;;;;;;;14.95;91.70;100241.06;5061867;28;19951;-69
2022/10/15 05:58:06;;;;;;;;;;;;;;;15.03;91.77;100229.91;5067152;28;19931;-69
2022/10/15 06:00:33;;;;;;;;;;;;;;;15.24;90.22;100236.16;5068413;28;19924;-69
2022/10/15 06:03:00;;;;;;;;;;;;;;;15.52;89.10;100226.91;5058453;28;19946;-69
2022/10/15 06:05:27;;;;;;;;;;;;;;;15.92;86.78;100227.16;5063947;28;19931;-69
2022/10/15 06:07:53;;;;;;;;;;;;;;;16.04;85.94;100226.97;5068764;28;20564;-70
2022/10/15 06:10:19;;;;;;;;;;;;;;;16.05;85.24;100223.38;5058804;28;19931;-69
2022/10/15 06:12:48;;;;;;;;;;;;;;;16.39;84.13;100226.72;5068514;28;19924;-69
2022/10/15 06:15:15;;;;;;;;;;;;;;;16.57;82.88;100231.44;5068087;28;19924;-69
2022/10/15 06:17:41;;;;;;;;;;;;;;;16.41;82.75;100224.75;5058491;28;20400;-69
2022/10/15 06:20:10;;;;;;;;;;;;;;;16.13;84.72;100227.19;5068593;28;19935;-69
2022/10/15 06:22:36;;;;;;;;;;;;;;;16.30;84.31;100237.22;5068550;28;19931;-69
2022/10/15 06:25:02;;;;;;;;;;;;;;;16.50;83.28;100233.75;5058279;28;20280;-69
2022/10/15 06:27:29;;;;;;;;;;;;;;;16.32;84.32;100219.41;5068955;28;19947;-69
2022/10/15 06:29:55;;;;;;;;;;;;;;;16.69;82.83;100233.91;5067538;28;19988;-69
2022/10/15 06:32:22;;;;;;;;;;;;;;;16.77;82.12;100238.56;5057218;28;19924;-69
2022/10/15 06:34:48;;;;;;;;;;;;;;;17.04;81.11;100238.81;5068061;28;20368;-70
2022/10/15 06:37:16;;;;;;;;;;;;;;;17.07;80.74;100248.34;5067000;28;19931;-70
2022/10/15 06:39:42;;;;;;;;;;;;;;;17.28;80.15;100247.31;5057718;28;19931;-69
2022/10/15 06:42:08;;;;;;;;;;;;;;;17.43;79.12;100251.28;5066673;28;20287;-69
2022/10/15 06:44:34;;;;;;;;;;;;;;;17.50;78.78;100249.75;5067522;28;19928;-70
2022/10/15 06:47:01;;;;;;;;;;;;;;;17.56;78.90;100250.16;5058117;28;19924;-70
2022/10/15 06:49:27;;;;;;;;;;;;;;;17.53;78.40;100248.63;5067804;28;19928;-70
2022/10/15 06:51:54;;;;;;;;;;;;;;;17.67;77.93;100255.38;5067661;28;20307;-70
2022/10/15 06:54:21;;;;;;;;;;;;;;;17.72;77.21;100246.06;5058066;28;19931;-70
2022/10/15 06:56:47;;;;;;;;;;;;;;;17.78;77.36;100253.47;5067851;28;20283;-70
2022/10/15 06:59:14;;;;;;;;;;;;;;;17.68;77.31;100249.97;5062776;28;19924;-71
2022/10/15 07:01:40;;;;;;;;;;;;;;;17.92;77.38;100255.72;5058005;28;19932;-71
2022/10/15 07:04:06;;;;;;;;;;;;;;;18.02;77.14;100253.09;5067350;28;20375;-70
2022/10/15 07:06:34;;;;;;;;;;;;;;;18.13;76.46;100263.56;5066470;28;19939;-70
2022/10/15 07:09:01;;;;;;;;;;;;;;;18.06;77.03;100266.91;5062365;28;19931;-67
2022/10/15 07:11:28;;;;;;;;;;;;;;;18.12;75.70;100276.97;5066983;28;19927;-67
2022/10/15 07:13:56;;;;;;;;;;;;;;;18.15;75.61;100282.84;5072514;28;20006;-67
2022/10/15 07:16:23;;;;;;;;;;;;;;;18.29;75.14;100287.72;5057068;28;19942;-68
2022/10/15 07:18:49;;;;;;;;;;;;;;;18.22;75.81;100286.59;5078438;28;20493;-68
2022/10/15 07:21:16;;;;;;;;;;;;;;;17.97;76.47;100284.50;5085336;28;20563;-67
2022/10/15 07:23:42;;;;;;;;;;;;;;;18.09;76.43;100294.00;5061154;28;19928;-68
2022/10/15 07:26:09;;;;;;;;;;;;;;;18.14;76.40;100296.25;5068025;28;19929;-68
2022/10/15 07:28:36;;;;;;;;;;;;;;;17.91;77.53;100299.16;5069216;28;19931;-68
2022/10/15 07:31:04;;;;;;;;;;;;;;;17.84;77.46;100298.03;5064998;28;19931;-68
2022/10/15 07:33:30;;;;;;;;;;;;;;;17.53;78.45;100299.84;5067695;28;19926;-68
2022/10/15 07:35:56;;;;;;;;;;;;;;;17.41;79.52;100305.34;5065482;28;20322;-68
2022/10/15 07:38:23;;;;;;;;;;;;;;;17.75;78.46;100303.28;5069079;28;19928;-68
2022/10/15 07:40:49;;;;;;;;;;;;;;;18.06;77.12;100302.25;5057427;28;20144;-68
2022/10/15 07:43:15;;;;;;;;;;;;;;;18.18;76.88;100300.31;5059916;28;19923;-68
2022/10/15 07:45:47;;;;;;;;;;;;;;;18.00;77.72;100305.44;5073367;28;19928;-68
2022/10/15 07:48:13;;;;;;;;;;;;;;;17.85;79.12;100294.38;5068751;28;19934;-68
2022/10/15 07:50:39;;;;;;;;;;;;;;;18.09;77.27;100296.66;5079145;28;19998;-68
2022/10/15 07:53:05;;;;;;;;;;;;;;;18.34;76.49;100293.47;5066800;28;19928;-68
2022/10/15 07:55:32;;;;;;;;;;;;;;;18.51;76.23;100293.75;5065902;28;19937;-68
2022/10/15 07:57:58;;;;;;;;;;;;;;;18.57;75.89;100299.38;5085519;28;20600;-68
2022/10/15 08:00:25;;;;;;;;;;;;;;;18.72;75.81;100299.78;5087189;28;19930;-68
2022/10/15 08:02:52;;;;;;;;;;;;;;;18.86;74.73;100301.97;5070430;28;20288;-68
2022/10/15 08:05:18;;;;;;;;;;;;;;;19.07;74.31;100310.59;5064790;28;19935;-68
2022/10/15 08:07:45;;;;;;;;;;;;;;;19.13;74.34;100307.38;5067474;28;19928;-68
2022/10/15 08:10:12;;;;;;;;;;;;;;;19.35;72.29;100306.19;5056348;28;19924;-68
2022/10/15 08:12:38;;;;;;;;;;;;;;;19.24;72.85;100307.22;5066703;28;19959;-68
2022/10/15 08:15:05;;;;;;;;;;;;;;;19.40;72.77;100307.41;5067014;28;20550;-68
2022/10/15 08:17:32;;;;;;;;;;;;;;;19.58;72.44;100309.34;5056920;28;19931;-68
2022/10/15 08:19:59;;;;;;;;;;;;;;;19.73;72.22;100303.38;5065978;28;20357;-68
2022/10/15 08:22:26;;;;;;;;;;;;;;;19.88;72.35;100309.06;5067299;28;19924;-68
2022/10/15 08:24:52;;;;;;;;;;;;;;;19.72;71.59;100306.19;5074918;28;19931;-68
2022/10/15 08:27:19;;;;;;;;;;;;;;;19.89;71.02;100311.56;5061663;28;19968;-68
2022/10/15 08:29:45;;;;;;;;;;;;;;;19.94;70.59;100297.81;5065369;28;20380;-68
2022/10/15 08:32:12;;;;;;;;;;;;;;;20.05;71.57;100299.41;5055596;28;19924;-68
2022/10/15 08:34:38;;;;;;;;;;;;;;;20.10;71.51;100311.25;5065876;28;20362;-68
2022/10/15 08:37:06;;;;;;;;;;;;;;;20.32;70.44;100310.06;5063969;28;19931;-68
2022/10/15 08:39:32;;;;;;;;;;;;;;;20.32;69.73;100321.50;5067803;28;20375;-68
2022/10/15 08:42:01;;;;;;;;;;;;;;;20.27;70.20;100323.78;5077110;28;19928;-68
2022/10/15 08:44:29;;;;;;;;;;;;;;;20.20;69.30;100317.38;5089852;28;20299;-67
2022/10/15 08:46:59;;;;;;;;;;;;;;;19.90;70.39;100331.84;5077547;28;19951;-68
2022/10/15 08:49:31;;;;;;;;;;;;;;;19.81;71.86;100322.09;5067607;28;19951;-68
2022/10/15 08:52:03;;;;;;;;;;;;;;;20.27;69.98;100321.13;5075040;28;20280;-68
2022/10/15 08:54:34;;;;;;;;;;;;;;;19.89;69.55;100326.69;5079510;28;20336;-68
2022/10/15 08:57:07;;;;;;;;;;;;;;;19.77;71.11;100339.34;5080426;28;19931;-68
2022/10/15 08:59:37;;;;;;;;;;;;;;;19.95;70.75;100336.75;5065509;28;19935;-68
2022/10/15 09:02:07;;;;;;;;;;;;;;;20.12;70.64;100338.59;5085456;28;19923;-68
2022/10/15 09:04:39;;;;;;;;;;;;;;;20.32;69.36;100331.34;5062337;28;20369;-68
2022/10/15 09:07:09;;;;;;;;;;;;;;;20.44;69.82;100329.28;5064854;28;19924;-68
2022/10/15 09:09:42;;;;;;;;;;;;;;;20.64;67.69;100330.81;5069921;28;20334;-68
2022/10/15 09:12:16;;;;;;;;;;;;;;;20.70;67.94;100336.34;5059047;28;19947;-68
2022/10/15 09:14:44;;;;;;;;;;;;;;;20.50;68.60;100334.00;5072675;28;21123;-68
2022/10/15 09:17:16;;;;;;;;;;;;;;;19.85;68.75;100335.94;5062371;28;19924;-68
2022/10/15 09:19:43;;;;;;;;;;;;;;;20.34;66.61;100334.69;5082656;28;20411;-68
2022/10/15 09:22:12;;;;;;;;;;;;;;;20.64;65.85;100350.28;5089712;28;19923;-68
2022/10/15 09:24:39;;;;;;;;;;;;;;;20.67;67.00;100349.13;5041555;28;19932;-68
2022/10/15 09:27:09;;;;;;;;;;;;;;;20.81;65.10;100348.59;5068488;28;20367;-68
2022/10/15 09:29:39;;;;;;;;;;;;;;;20.55;66.03;100342.38;5075142;28;19941;-68
2022/10/15 09:32:10;;;;;;;;;;;;;;;19.95;67.74;100355.38;5079018;28;19928;-68
2022/10/15 09:34:39;;;;;;;;;;;;;;;19.54;70.22;100353.19;5071055;28;19925;-68
2022/10/15 09:37:09;;;;;;;;;;;;;;;19.47;70.51;100342.28;5061995;28;19931;-68
2022/10/15 09:39:41;;;;;;;;;;;;;;;19.76;70.59;100356.31;5068605;28;19931;-68
2022/10/15 09:42:14;;;;;;;;;;;;;;;20.26;67.74;100351.38;5080937;28;19931;-68
2022/10/15 09:44:42;;;;;;;;;;;;;;;20.50;67.52;100348.16;5077244;28;19927;-68
2022/10/15 09:47:16;;;;;;;;;;;;;;;20.24;67.71;100355.19;5088050;28;19931;-68
2022/10/15 09:49:42;;;;;;;;;;;;;;;20.24;68.48;100353.38;5047759;28;19949;-69
2022/10/15 09:52:11;;;;;;;;;;;;;;;20.61;66.24;100355.09;5076700;28;20294;-68
2022/10/15 09:54:43;;;;;;;;;;;;;;;20.65;68.28;100353.78;5078868;28;20451;-69
2022/10/15 09:57:12;;;;;;;;;;;;;;;20.66;68.00;100350.13;5058216;28;19975;-68
2022/10/15 09:59:51;;;;;;;;;;;;;;;20.75;66.00;100351.88;5075983;28;19924;-69
2022/10/15 10:02:19;;;;;;;;;;;;;;;21.18;65.69;100349.25;5036755;28;19928;-69
2022/10/15 10:04:46;;;;;;;;;;;;;;;21.35;64.01;100353.69;5046772;28;20167;-69
2022/10/15 10:07:27;;;;;;;;;;;;;;;21.30;64.42;100350.66;5067441;28;19924;-68
2022/10/15 10:09:55;;;;;;;;;;;;;;;21.76;61.99;100351.25;5055217;28;19931;-69
2022/10/15 10:12:25;;;;;;;;;;;;;;;21.85;63.87;100350.25;5076683;28;19932;-69
2022/10/15 10:14:54;;;;;;;;;;;;;;;22.28;60.71;100350.09;5088002;28;19982;-69
2022/10/15 10:17:22;;;;;;;;;;;;;;;22.23;60.94;100339.09;5073040;28;20380;-69
2022/10/15 10:20:02;;;;;;;;;;;;;;;23.08;61.13;100345.00;5070738;28;19947;-69
2022/10/15 10:22:29;;;;;;;;;;;;;;;24.14;58.79;100360.59;5055563;28;19932;-69
2022/10/15 10:24:55;;;;;;;;;;;;;;;24.99;54.08;100350.63;5066363;28;20439;-70
2022/10/15 10:27:24;;;;;;;;;;;;;;;25.42;54.88;100350.91;5068422;28;19928;-69
2022/10/15 10:29:53;;;;;;;;;;;;;;;24.92;51.91;100354.22;5058250;28;20356;-69
2022/10/15 10:32:20;;;;;;;;;;;;;;;23.25;58.14;100352.81;5072474;28;19927;-69
2022/10/15 10:34:47;;;;;;;;;;;;;;;22.84;57.76;100359.19;5068448;28;20073;-69
2022/10/15 10:37:13;;;;;;;;;;;;;;;22.80;58.23;100352.50;5060983;28;19924;-69
2022/10/15 10:39:42;;;;;;;;;;;;;;;22.99;57.93;100368.22;5059523;28;20339;-69
2022/10/15 10:42:24;;;;;;;;;;;;;;;22.87;57.14;100358.88;5078040;28;20022;-69
2022/10/15 10:44:52;;;;;;;;;;;;;;;22.96;57.30;100351.69;5065871;28;19963;-69
2022/10/15 10:47:20;;;;;;;;;;;;;;;22.99;57.56;100362.88;5068217;28;19931;-69
2022/10/15 10:49:47;;;;;;;;;;;;;;;22.57;58.18;100351.50;5056672;28;19924;-69
2022/10/15 10:52:28;;;;;;;;;;;;;;;22.40;58.40;100352.44;5065993;28;19951;-68
2022/10/15 10:55:05;;;;;;;;;;;;;;;22.37;58.72;100355.44;5053010;28;19924;-68
2022/10/15 10:57:43;;;;;;;;;;;;;;;22.35;58.68;100346.78;5062585;28;20015;-68
2022/10/15 11:00:14;;;;;;;;;;;;;;;21.78;60.34;100349.22;5056400;28;19932;-68
2022/10/15 11:02:42;;;;;;;;;;;;;;;21.78;61.24;100354.56;5063668;28;19932;-68
2022/10/15 11:05:09;;;;;;;;;;;;;;;22.05;59.67;100349.03;5066295;28;19924;-68
2022/10/15 11:07:40;;;;;;;;;;;;;;;21.82;60.06;100355.94;5064390;28;19928;-68
2022/10/15 11:10:11;;;;;;;;;;;;;;;21.87;59.63;100348.28;5065024;28;19935;-68
2022/10/15 11:12:58;;;;;;;;;;;;;;;21.02;61.66;100350.94;5066964;28;19928;-68
2022/10/15 11:15:35;;;;;;;;;;;;;;;20.48;63.98;100343.97;5062347;28;19924;-67
2022/10/15 11:18:06;;;;;;;;;;;;;;;21.12;62.68;100341.88;5058379;28;19924;-67
2022/10/15 11:20:41;;;;;;;;;;;;;;;21.48;64.62;100333.75;5067108;28;19932;-67
2022/10/15 11:23:15;;;;;;;;;;;;;;;21.78;61.36;100343.91;5066398;28;19924;-67
2022/10/15 11:25:46;;;;;;;;;;;;;;;21.60;62.47;100348.50;5068914;28;19935;-69
2022/10/15 11:28:28;;;;;;;;;;;;;;;21.55;61.54;100340.94;5065028;28;19924;-69
2022/10/15 11:30:59;;;;;;;;;;;;;;;21.21;62.91;100345.44;5057054;28;19924;-69
2022/10/15 11:33:31;;;;;;;;;;;;;;;21.84;62.27;100341.41;5066117;28;19925;-69
2022/10/15 11:36:04;;;;;;;;;;;;;;;21.67;65.57;100342.34;5050424;28;19931;-69
2022/10/15 11:38:38;;;;;;;;;;;;;;;21.25;62.53;100339.63;5067092;28;19924;-69
2022/10/15 11:41:15;;;;;;;;;;;;;;;21.32;64.20;100347.84;5055751;28;19931;-68
2022/10/15 11:43:52;;;;;;;;;;;;;;;21.47;63.49;100350.75;5063174;28;19928;-68
2022/10/15 11:46:25;;;;;;;;;;;;;;;21.61;61.78;100347.50;5057453;28;20315;-68
2022/10/15 11:48:59;;;;;;;;;;;;;;;21.09;63.10;100346.66;5066117;28;19951;-68
2022/10/15 11:51:29;;;;;;;;;;;;;;;21.15;64.81;100351.38;5067769;28;19924;-68
2022/10/15 11:54:03;;;;;;;;;;;;;;;20.95;63.38;100344.56;5066898;28;19925;-68
2022/10/15 11:56:33;;;;;;;;;;;;;;;20.60;65.00;100345.41;5066802;28;19924;-68
2022/10/15 11:59:01;;;;;;;;;;;;;;;21.06;63.57;100338.97;5052278;28;19947;-68
2022/10/15 12:01:30;;;;;;;;;;;;;;;21.06;64.45;100336.31;5066507;28;20345;-68
2022/10/15 12:04:00;;;;;;;;;;;;;;;21.13;63.86;100332.88;5063670;28;19928;-68
2022/10/15 12:06:30;;;;;;;;;;;;;;;21.56;63.74;100325.78;5054203;28;20384;-69
2022/10/15 12:08:57;;;;;;;;;;;;;;;22.13;61.75;100326.88;5066682;28;19972;-69
2022/10/15 12:11:23;;;;;;;;;;;;;;;;;;5066740;28;20403;-69
2022/10/15 12:13:52;;;;;;;;;;;;;;;22.26;61.35;100306.69;5053486;28;19931;-69
2022/10/15 12:16:23;;;;;;;;;;;;;;;21.38;62.75;100317.03;5069920;28;20741;-69
2022/10/15 12:18:54;;;;;;;;;;;;;;;21.61;62.89;100307.47;5060994;28;19947;-69
2022/10/15 12:21:31;;;;;;;;;;;;;;;21.93;62.94;100310.28;5060757;28;19932;-69
2022/10/15 12:23:58;;;;;;;;;;;;;;;22.15;62.36;100299.00;5070181;28;20434;-69
2022/10/15 12:26:30;;;;;;;;;;;;;;;22.05;59.90;100306.31;5059592;28;19924;-69
2022/10/15 12:28:58;;;;;;;;;;;;;;;22.30;59.64;100302.69;5068467;28;19928;-69
2022/10/15 12:31:24;;;;;;;;;;;;;;;21.54;61.43;100299.28;5060894;28;19932;-69
2022/10/15 12:33:53;;;;;;;;;;;;;;;22.14;60.42;100304.50;5069611;28;20122;-69
2022/10/15 12:36:23;;;;;;;;;;;;;;;21.99;59.70;100292.81;5068612;28;19924;-69
2022/10/15 12:38:55;;;;;;;;;;;;;;;22.37;59.16;100294.00;5059667;28;20381;-69
2022/10/15 12:41:21;;;;;;;;;;;;;;;22.46;59.23;100293.88;5069223;28;19924;-69
2022/10/15 12:43:53;;;;;;;;;;;;;;;22.41;58.75;100298.03;5067221;28;20542;-69